Time;durP1;ratioP1;P1;durP2;ratioP2;P2;SDS_P1;SDS_P2;PMS_P1;PMS_P2;Temp;Humidity;BMP_temperature;BMP_pressure;BME280_temperature;BME280_humidity;BME280_pressure;Samples;Min_cycle;Max_cycle;Signal;HPM_P1;HPM_P2
2022/07/08 00:02:17;;;;;;;2.95;0.70;;;;;;;;;;5036944;28;20167;-77
2022/07/08 00:04:43;;;;;;;1.85;0.70;;;;;;;;;;5036947;28;20099;-77
2022/07/08 00:07:10;;;;;;;1.38;0.85;;;;;;;;;;5036893;28;20049;-77
2022/07/08 00:09:36;;;;;;;1.45;1.00;;;;;;;;;;5036559;28;20041;-77
2022/07/08 00:12:02;;;;;;;1.88;0.88;;;;;;;;;;5019047;28;20033;-76
2022/07/08 00:14:28;;;;;;;0.75;0.75;;;;;;;;;;5036622;28;20073;-77
2022/07/08 00:16:54;;;;;;;2.13;0.82;;;;;;;;;;5036407;28;20110;-77
2022/07/08 00:19:21;;;;;;;2.47;0.88;;;;;;;;;;5036559;28;20044;-77
2022/07/08 00:21:51;;;;;;;1.60;0.80;;;;;;;;;;5036681;28;20103;-77
2022/07/08 00:24:17;;;;;;;1.45;0.90;;;;;;;;;;5036748;28;20131;-76
2022/07/08 00:26:43;;;;;;;2.47;1.08;;;;;;;;;;5019039;28;20430;-77
2022/07/08 00:29:10;;;;;;;2.92;0.82;;;;;;;;;;5036272;28;20076;-76
2022/07/08 00:31:36;;;;;;;2.60;0.90;;;;;;;;;;5036169;28;20487;-77
2022/07/08 00:34:02;;;;;;;3.00;1.00;;;;;;;;;;5036375;28;20045;-76
2022/07/08 00:36:29;;;;;;;1.75;0.80;;;;;;;;;;5036077;28;20042;-76
2022/07/08 00:38:55;;;;;;;1.30;0.98;;;;;;;;;;5036315;28;20076;-76
2022/07/08 00:41:21;;;;;;;3.10;1.10;;;;;;;;;;5036137;28;20037;-77
2022/07/08 00:43:48;;;;;;;1.20;0.80;;;;;;;;;;5035997;28;20049;-77
2022/07/08 00:46:15;;;;;;;1.27;0.90;;;;;;;;;;5035879;28;20041;-77
2022/07/08 00:48:42;;;;;;;3.70;1.00;;;;;;;;;;5036299;28;20056;-77
2022/07/08 00:51:10;;;;;;;1.75;0.85;;;;;;;;;;5036526;28;20064;-77
2022/07/08 00:53:37;;;;;;;3.08;0.90;;;;;;;;;;5036041;28;20072;-76
2022/07/08 00:56:03;;;;;;;3.60;1.13;;;;;;;;;;5035998;28;20514;-77
2022/07/08 00:58:31;;;;;;;3.30;1.40;;;;;;;;;;5014373;28;20057;-76
2022/07/08 01:00:57;;;;;;;1.55;1.00;;;;;;;;;;5016651;28;20161;-77
2022/07/08 01:03:23;;;;;;;4.35;1.20;;;;;;;;;;5016364;28;20122;-76
2022/07/08 01:05:49;;;;;;;2.00;1.00;;;;;;;;;;5016318;28;20046;-77
2022/07/08 01:08:16;;;;;;;2.72;1.05;;;;;;;;;;5016228;28;20512;-76
2022/07/08 01:10:42;;;;;;;1.35;0.90;;;;;;;;;;5016198;28;20042;-77
2022/07/08 01:13:08;;;;;;;1.77;0.98;;;;;;;;;;5016106;28;20043;-77
2022/07/08 01:15:34;;;;;;;2.85;1.00;;;;;;;;;;5016301;28;20065;-77
2022/07/08 01:18:01;;;;;;;3.63;1.10;;;;;;;;;;5014581;28;20038;-76
2022/07/08 01:20:27;;;;;;;2.95;1.00;;;;;;;;;;5016575;28;20120;-76
2022/07/08 01:22:53;;;;;;;2.78;0.90;;;;;;;;;;5015956;28;20124;-76
2022/07/08 01:25:19;;;;;;;1.75;0.90;;;;;;;;;;5015599;28;20049;-76
2022/07/08 01:27:45;;;;;;;1.05;0.93;;;;;;;;;;5016063;28;20551;-76
2022/07/08 01:30:11;;;;;;;2.30;0.93;;;;;;;;;;5015200;28;20072;-76
2022/07/08 01:32:42;;;;;;;3.72;0.95;;;;;;;;;;5015818;28;20046;-76
2022/07/08 01:35:08;;;;;;;1.20;1.10;;;;;;;;;;5016410;28;20042;-76
2022/07/08 01:37:35;;;;;;;2.15;0.98;;;;;;;;;;5015800;28;20050;-76
2022/07/08 01:40:01;;;;;;;1.33;0.85;;;;;;;;;;5015731;28;20037;-77
2022/07/08 01:42:27;;;;;;;2.83;1.02;;;;;;;;;;5015819;28;20073;-77
2022/07/08 01:44:53;;;;;;;3.13;1.13;;;;;;;;;;5015569;28;20077;-77
2022/07/08 01:47:19;;;;;;;1.73;1.20;;;;;;;;;;5015848;28;20046;-77
2022/07/08 01:49:46;;;;;;;1.13;1.02;;;;;;;;;;5015263;28;20454;-77
2022/07/08 01:52:12;;;;;;;2.28;1.00;;;;;;;;;;5015571;28;20476;-77
2022/07/08 01:54:39;;;;;;;1.35;1.10;;;;;;;;;;5015243;28;20064;-77
2022/07/08 01:57:14;;;;;;;2.97;1.33;;;;;;;;;;5015487;28;20112;-77
2022/07/08 01:59:43;;;;;;;1.70;1.00;;;;;;;;;;5032024;28;20057;-77
2022/07/08 02:02:10;;;;;;;1.20;1.10;;;;;;;;;;5035103;28;20147;-77
2022/07/08 02:04:36;;;;;;;2.42;1.23;;;;;;;;;;5035000;28;20060;-77
2022/07/08 02:07:03;;;;;;;1.60;1.10;;;;;;;;;;5035029;28;20053;-77
2022/07/08 02:09:29;;;;;;;1.42;1.08;;;;;;;;;;5035153;28;20045;-76
2022/07/08 02:14:39;;;;;;;1.48;1.00;;;;;;;;;;5034347;28;20052;-77
2022/07/08 02:17:06;;;;;;;0.90;0.90;;;;;;;;;;5035064;28;20033;-77
2022/07/08 02:19:33;;;;;;;1.23;0.93;;;;;;;;;;5035034;28;20049;-76
2022/07/08 02:21:59;;;;;;;2.15;1.10;;;;;;;;;;5034846;28;20087;-76
2022/07/08 02:24:25;;;;;;;1.17;1.00;;;;;;;;;;5034840;28;20041;-77
2022/07/08 02:26:52;;;;;;;1.27;1.17;;;;;;;;;;5034519;28;20075;-77
2022/07/08 02:29:18;;;;;;;1.48;0.93;;;;;;;;;;5034409;28;20056;-77
2022/07/08 02:31:44;;;;;;;2.45;1.00;;;;;;;;;;5034764;28;20072;-77
2022/07/08 02:34:10;;;;;;;2.15;0.95;;;;;;;;;;5034633;28;20053;-76
2022/07/08 02:36:36;;;;;;;2.35;1.15;;;;;;;;;;5034435;28;20069;-76
2022/07/08 02:39:04;;;;;;;2.92;1.30;;;;;;;;;;5034658;28;20507;-76
2022/07/08 02:41:30;;;;;;;1.77;1.30;;;;;;;;;;5038879;28;20041;-77
2022/07/08 02:43:56;;;;;;;1.83;0.90;;;;;;;;;;5038669;28;20053;-76
2022/07/08 02:46:22;;;;;;;1.60;1.02;;;;;;;;;;5039259;28;20071;-76
2022/07/08 02:48:49;;;;;;;1.55;1.10;;;;;;;;;;5038872;28;20532;-76
2022/07/08 02:51:15;;;;;;;1.80;1.13;;;;;;;;;;5038333;28;20037;-77
2022/07/08 02:53:41;;;;;;;2.38;1.20;;;;;;;;;;5038558;28;20483;-76
2022/07/08 02:56:07;;;;;;;1.33;0.95;;;;;;;;;;5038219;28;20496;-76
2022/07/08 02:58:33;;;;;;;1.55;1.02;;;;;;;;;;5038262;28;20065;-77
2022/07/08 03:00:59;;;;;;;2.95;1.10;;;;;;;;;;5038090;28;20069;-76
2022/07/08 03:03:25;;;;;;;2.83;1.02;;;;;;;;;;5037730;28;20499;-77
2022/07/08 03:05:51;;;;;;;1.52;1.10;;;;;;;;;;5038026;28;20098;-77
2022/07/08 03:08:18;;;;;;;1.83;0.98;;;;;;;;;;5037849;28;20053;-76
2022/07/08 03:10:44;;;;;;;1.63;1.00;;;;;;;;;;5038190;28;20037;-77
2022/07/08 03:13:10;;;;;;;2.30;1.20;;;;;;;;;;5037846;28;20041;-77
2022/07/08 03:15:36;;;;;;;1.15;0.90;;;;;;;;;;5038139;28;20034;-76
2022/07/08 03:18:02;;;;;;;2.92;1.40;;;;;;;;;;5038268;28;20484;-77
2022/07/08 03:20:28;;;;;;;1.73;1.00;;;;;;;;;;5037492;28;20569;-77
2022/07/08 03:22:54;;;;;;;1.58;1.10;;;;;;;;;;5037983;28;20076;-77
2022/07/08 03:25:20;;;;;;;1.67;1.05;;;;;;;;;;5037343;28;20117;-76
2022/07/08 03:27:48;;;;;;;2.35;1.17;;;;;;;;;;5037097;28;20562;-77
2022/07/08 03:30:14;;;;;;;3.30;1.10;;;;;;;;;;5037575;28;20045;-77
2022/07/08 03:32:41;;;;;;;1.98;1.23;;;;;;;;;;5038097;28;20129;-77
2022/07/08 03:35:07;;;;;;;1.65;0.93;;;;;;;;;;5037226;28;20045;-77
2022/07/08 03:37:33;;;;;;;1.98;0.93;;;;;;;;;;5037533;28;20079;-77
2022/07/08 03:41:19;;;;;;;3.22;1.17;;;;;;;;;;5037422;28;20034;-77
2022/07/08 03:42:46;;;;;;;3.30;0.90;;;;;;;;;;5036540;28;20407;-77
2022/07/08 03:45:12;;;;;;;1.92;0.80;;;;;;;;;;5037293;28;20033;-77
2022/07/08 03:47:38;;;;;;;4.43;1.10;;;;;;;;;;5037873;28;20052;-77
2022/07/08 03:50:04;;;;;;;1.90;0.80;;;;;;;;;;5037229;28;20041;-76
2022/07/08 03:52:30;;;;;;;0.80;0.80;;;;;;;;;;5037032;28;20038;-76
2022/07/08 03:54:57;;;;;;;3.13;1.00;;;;;;;;;;5037129;28;20041;-77
2022/07/08 03:57:23;;;;;;;2.15;0.98;;;;;;;;;;5037379;28;20049;-77
2022/07/08 03:59:49;;;;;;;1.00;0.90;;;;;;;;;;5037735;28;20463;-77
2022/07/08 04:02:15;;;;;;;1.63;0.90;;;;;;;;;;5037033;28;20048;-76
2022/07/08 04:04:41;;;;;;;3.13;1.00;;;;;;;;;;5036945;28;20123;-77
2022/07/08 04:07:07;;;;;;;3.50;1.10;;;;;;;;;;5036952;28;20037;-76
2022/07/08 04:09:33;;;;;;;2.53;1.15;;;;;;;;;;5037050;28;20049;-76
2022/07/08 04:11:59;;;;;;;2.78;0.80;;;;;;;;;;5036878;28;20041;-76
2022/07/08 04:14:25;;;;;;;1.20;0.90;;;;;;;;;;5036713;28;20049;-76
2022/07/08 04:16:52;;;;;;;2.13;1.13;;;;;;;;;;5037601;28;20063;-77
2022/07/08 04:19:18;;;;;;;2.63;0.90;;;;;;;;;;5037181;28;20057;-77
2022/07/08 04:21:44;;;;;;;3.03;1.20;;;;;;;;;;5037510;28;20041;-76
2022/07/08 04:24:11;;;;;;;1.83;1.00;;;;;;;;;;5036690;28;20049;-76
2022/07/08 04:26:37;;;;;;;3.90;1.30;;;;;;;;;;5036848;28;20127;-77
2022/07/08 04:29:03;;;;;;;1.20;1.05;;;;;;;;;;5036908;28;20054;-76
2022/07/08 04:31:29;;;;;;;3.20;1.35;;;;;;;;;;5036645;28;20553;-77
2022/07/08 04:33:55;;;;;;;3.85;0.98;;;;;;;;;;5036700;28;20076;-77
2022/07/08 04:36:22;;;;;;;1.85;1.00;;;;;;;;;;5036783;28;20037;-76
2022/07/08 04:38:48;;;;;;;1.52;1.00;;;;;;;;;;5036972;28;20041;-76
2022/07/08 04:41:15;;;;;;;3.33;0.90;;;;;;;;;;5037149;28;20037;-76
2022/07/08 04:43:43;;;;;;;1.50;1.40;;;;;;;;;;5036001;28;20140;-77
2022/07/08 04:46:10;;;;;;;5.35;1.10;;;;;;;;;;5036467;28;20045;-76
2022/07/08 04:48:36;;;;;;;1.75;0.82;;;;;;;;;;5036533;28;20053;-77
2022/07/08 04:51:02;;;;;;;3.95;1.10;;;;;;;;;;5036375;28;20038;-77
2022/07/08 04:53:29;;;;;;;4.35;1.13;;;;;;;;;;5036046;28;20071;-77
2022/07/08 04:55:55;;;;;;;1.88;1.13;;;;;;;;;;5036576;28;20037;-77
2022/07/08 04:58:21;;;;;;;4.28;1.02;;;;;;;;;;5036065;28;20058;-76
2022/07/08 05:00:47;;;;;;;3.85;1.10;;;;;;;;;;5035619;28;20500;-76
2022/07/08 05:03:13;;;;;;;3.38;1.10;;;;;;;;;;5034702;28;20045;-76
2022/07/08 05:05:39;;;;;;;2.38;0.95;;;;;;;;;;5036382;28;20037;-76
2022/07/08 05:08:05;;;;;;;2.90;1.00;;;;;;;;;;5035692;28;20124;-77
2022/07/08 05:10:32;;;;;;;1.45;1.10;;;;;;;;;;5035733;28;20044;-76
2022/07/08 05:12:58;;;;;;;1.88;1.20;;;;;;;;;;5035766;28;20045;-76
2022/07/08 05:15:25;;;;;;;3.13;1.10;;;;;;;;;;5035639;28;20034;-77
2022/07/08 05:17:54;;;;;;;1.48;1.17;;;;;;;;;;5035662;28;20046;-76
2022/07/08 05:20:21;;;;;;;2.20;1.30;;;;;;;;;;5035507;28;20511;-77
2022/07/08 05:22:47;;;;;;;3.22;1.10;;;;;;;;;;5017607;28;20029;-77
2022/07/08 05:25:13;;;;;;;3.20;1.10;;;;;;;;;;5029439;28;20408;-76
2022/07/08 05:27:40;;;;;;;3.75;1.30;;;;;;;;;;5030153;28;20064;-77
2022/07/08 05:30:07;;;;;;;1.60;1.20;;;;;;;;;;5006843;28;20492;-77
2022/07/08 05:32:34;;;;;;;2.00;1.10;;;;;;;;;;5024727;28;20041;-77
2022/07/08 05:35:01;;;;;;;3.78;1.10;;;;;;;;;;5024942;28;20389;-77
2022/07/08 05:37:27;;;;;;;3.13;1.02;;;;;;;;;;5021098;28;20119;-76
2022/07/08 05:39:53;;;;;;;1.92;1.27;;;;;;;;;;5024916;28;20096;-77
2022/07/08 05:42:19;;;;;;;1.08;0.93;;;;;;;;;;5024190;28;20037;-76
2022/07/08 05:44:46;;;;;;;1.95;1.10;;;;;;;;;;5024395;28;20091;-76
2022/07/08 05:47:13;;;;;;;2.03;0.88;;;;;;;;;;5026806;28;20577;-76
2022/07/08 05:49:43;;;;;;;2.55;1.00;;;;;;;;;;5018362;28;20567;-76
2022/07/08 05:52:09;;;;;;;1.85;1.00;;;;;;;;;;5013025;28;20103;-76
2022/07/08 05:54:35;;;;;;;1.00;0.90;;;;;;;;;;5014639;28;20045;-76
2022/07/08 05:57:02;;;;;;;1.90;0.90;;;;;;;;;;5014417;28;20496;-75
2022/07/08 05:59:29;;;;;;;5.13;1.10;;;;;;;;;;5014219;28;20101;-75
2022/07/08 06:01:55;;;;;;;1.85;1.20;;;;;;;;;;5015609;28;20037;-75
2022/07/08 06:04:22;;;;;;;1.55;1.00;;;;;;;;;;5016307;28;20076;-75
2022/07/08 06:06:48;;;;;;;1.00;0.90;;;;;;;;;;5014399;28;20046;-76
2022/07/08 06:09:14;;;;;;;1.85;0.98;;;;;;;;;;5018441;28;20048;-76
2022/07/08 06:11:40;;;;;;;1.02;1.00;;;;;;;;;;5026229;28;20527;-75
2022/07/08 06:14:06;;;;;;;4.00;1.05;;;;;;;;;;5023822;28;20123;-76
2022/07/08 06:16:33;;;;;;;3.95;0.98;;;;;;;;;;5037219;28;20033;-76
2022/07/08 06:18:59;;;;;;;1.23;1.05;;;;;;;;;;5033443;28;20051;-75
2022/07/08 06:21:25;;;;;;;2.13;1.00;;;;;;;;;;5034276;28;20095;-77
2022/07/08 06:23:51;;;;;;;2.75;0.85;;;;;;;;;;5034072;28;20045;-75
2022/07/08 06:26:19;;;;;;;1.20;1.05;;;;;;;;;;5032622;28;20511;-75
2022/07/08 06:28:45;;;;;;;2.80;1.10;;;;;;;;;;5014352;28;20073;-76
2022/07/08 06:31:11;;;;;;;1.38;1.00;;;;;;;;;;5014414;28;20492;-76
2022/07/08 06:33:37;;;;;;;5.00;0.88;;;;;;;;;;5013926;28;20448;-76
2022/07/08 06:36:03;;;;;;;1.05;0.90;;;;;;;;;;5014061;28;20053;-76
2022/07/08 06:38:29;;;;;;;2.38;0.90;;;;;;;;;;5014588;28;20045;-76
2022/07/08 06:40:56;;;;;;;2.15;1.08;;;;;;;;;;5015315;28;20064;-78
2022/07/08 06:43:22;;;;;;;2.03;1.10;;;;;;;;;;5026416;28;20110;-79
2022/07/08 06:45:49;;;;;;;3.00;1.20;;;;;;;;;;5032030;28;20590;-81
2022/07/08 06:48:15;;;;;;;2.35;0.93;;;;;;;;;;5023941;28;20045;-79
2022/07/08 06:50:41;;;;;;;2.97;1.13;;;;;;;;;;5031805;28;20129;-79
2022/07/08 06:53:07;;;;;;;3.03;1.00;;;;;;;;;;5033481;28;20475;-79
2022/07/08 06:55:34;;;;;;;3.85;1.10;;;;;;;;;;5033103;28;20048;-79
2022/07/08 06:58:00;;;;;;;2.97;1.15;;;;;;;;;;5033125;28;20042;-79
2022/07/08 07:00:27;;;;;;;1.20;1.08;;;;;;;;;;5033148;28;20056;-79
2022/07/08 07:02:54;;;;;;;2.30;1.23;;;;;;;;;;5031003;28;20061;-78
2022/07/08 07:05:20;;;;;;;3.83;1.40;;;;;;;;;;5021418;28;20072;-79
2022/07/08 07:07:47;;;;;;;3.17;0.95;;;;;;;;;;5033622;28;20059;-80
2022/07/08 07:10:13;;;;;;;6.40;1.20;;;;;;;;;;5033384;28;20025;-80
2022/07/08 07:12:40;;;;;;;1.23;0.93;;;;;;;;;;5031711;28;20091;-81
2022/07/08 07:15:06;;;;;;;2.30;0.70;;;;;;;;;;5024619;28;20048;-80
2022/07/08 07:17:32;;;;;;;3.80;1.00;;;;;;;;;;5013555;28;20052;-80
2022/07/08 07:19:59;;;;;;;3.95;1.10;;;;;;;;;;5013076;28;20100;-80
2022/07/08 07:22:25;;;;;;;1.13;1.00;;;;;;;;;;5013541;28;20504;-80
2022/07/08 07:24:51;;;;;;;1.70;0.80;;;;;;;;;;5013549;28;20045;-80
2022/07/08 07:27:18;;;;;;;2.67;1.10;;;;;;;;;;5023198;28;20132;-80
2022/07/08 07:29:44;;;;;;;2.35;1.00;;;;;;;;;;5026514;28;20052;-79
2022/07/08 07:32:10;;;;;;;1.02;0.90;;;;;;;;;;5033793;28;20045;-79
2022/07/08 07:34:36;;;;;;;1.42;0.80;;;;;;;;;;5036250;28;20569;-80
2022/07/08 07:37:02;;;;;;;1.85;0.95;;;;;;;;;;5036170;28;20063;-80
2022/07/08 07:39:29;;;;;;;3.22;1.00;;;;;;;;;;5027308;28;20045;-79
2022/07/08 07:41:55;;;;;;;4.63;0.70;;;;;;;;;;5036278;28;20038;-79
2022/07/08 07:44:21;;;;;;;1.40;0.82;;;;;;;;;;5017981;28;20045;-80
2022/07/08 07:46:47;;;;;;;2.38;0.82;;;;;;;;;;5036489;28;20495;-81
2022/07/08 07:49:13;;;;;;;1.80;0.77;;;;;;;;;;5030939;28;20045;-81
2022/07/08 07:51:39;;;;;;;0.88;0.80;;;;;;;;;;5050628;28;20037;-80
2022/07/08 07:54:06;;;;;;;3.35;0.85;;;;;;;;;;5044066;28;20046;-81
2022/07/08 07:56:33;;;;;;;1.92;1.10;;;;;;;;;;5018202;28;20037;-80
2022/07/08 07:58:59;;;;;;;1.98;0.85;;;;;;;;;;5046065;28;20067;-80
2022/07/08 08:01:25;;;;;;;1.23;0.82;;;;;;;;;;5014789;28;20454;-80
2022/07/08 08:03:51;;;;;;;1.75;0.93;;;;;;;;;;5046654;28;20170;-80
2022/07/08 08:06:18;;;;;;;1.27;0.73;;;;;;;;;;5038527;28;20076;-80
2022/07/08 08:08:44;;;;;;;2.10;1.13;;;;;;;;;;5031407;28;20087;-77
2022/07/08 08:11:10;;;;;;;2.63;0.82;;;;;;;;;;5035157;28;20044;-77
2022/07/08 08:13:37;;;;;;;1.00;0.90;;;;;;;;;;5031662;28;20056;-79
2022/07/08 08:16:03;;;;;;;2.72;1.20;;;;;;;;;;5016372;28;20034;-78
2022/07/08 08:18:29;;;;;;;3.30;0.90;;;;;;;;;;5014932;28;20095;-78
2022/07/08 08:20:55;;;;;;;3.88;1.00;;;;;;;;;;5033898;28;20530;-77
2022/07/08 08:23:22;;;;;;;1.92;1.00;;;;;;;;;;5031454;28;20046;-77
2022/07/08 08:25:48;;;;;;;1.00;0.85;;;;;;;;;;5020545;28;20049;-77
2022/07/08 08:28:14;;;;;;;2.33;0.68;;;;;;;;;;5036230;28;20049;-77
2022/07/08 08:30:41;;;;;;;2.33;0.90;;;;;;;;;;5045296;28;20033;-77
2022/07/08 08:33:07;;;;;;;1.00;0.90;;;;;;;;;;5032046;28;20440;-77
2022/07/08 08:35:33;;;;;;;1.67;0.80;;;;;;;;;;5046782;28;20037;-78
2022/07/08 08:38:00;;;;;;;4.53;0.90;;;;;;;;;;5051314;28;20127;-78
2022/07/08 08:40:27;;;;;;;1.92;0.65;;;;;;;;;;5038404;28;20059;-77
2022/07/08 08:42:53;;;;;;;2.75;0.88;;;;;;;;;;5031326;28;20095;-78
2022/07/08 08:45:19;;;;;;;1.20;0.70;;;;;;;;;;5023130;28;20045;-78
2022/07/08 08:47:47;;;;;;;2.60;0.90;;;;;;;;;;5013555;28;20075;-77
2022/07/08 08:53:02;;;;;;;4.25;0.80;;;;;;;;;;5043465;28;20060;-78
2022/07/08 08:55:29;;;;;;;3.33;0.77;;;;;;;;;;5055672;28;20529;-77
2022/07/08 08:57:59;;;;;;;1.00;0.80;;;;;;;;;;5009892;28;20121;-77
2022/07/08 09:00:26;;;;;;;2.25;0.80;;;;;;;;;;5015529;28;20033;-77
2022/07/08 09:02:53;;;;;;;1.83;0.75;;;;;;;;;;5016032;28;20045;-76
2022/07/08 09:05:20;;;;;;;1.13;0.80;;;;;;;;;;5028625;28;20132;-76
2022/07/08 09:07:46;;;;;;;1.33;0.88;;;;;;;;;;5029406;28;20053;-78
2022/07/08 09:10:17;;;;;;;1.25;0.82;;;;;;;;;;5026044;28;20041;-78
2022/07/08 09:13:10;;;;;;;3.90;0.98;;;;;;;;;;5006522;28;20053;-77
2022/07/08 09:15:38;;;;;;;2.10;0.95;;;;;;;;;;5012919;28;20091;-78
2022/07/08 09:18:05;;;;;;;2.42;1.00;;;;;;;;;;5033127;28;20063;-79
2022/07/08 09:20:44;;;;;;;2.28;0.77;;;;;;;;;;5019521;28;20069;-78
2022/07/08 09:23:13;;;;;;;1.27;0.90;;;;;;;;;;4999789;28;20029;-77
2022/07/08 09:25:40;;;;;;;3.20;0.90;;;;;;;;;;5033811;28;20049;-77
2022/07/08 09:28:06;;;;;;;4.43;1.02;;;;;;;;;;5041789;28;20116;-77
2022/07/08 09:30:34;;;;;;;5.00;1.10;;;;;;;;;;5015965;28;20130;-77
2022/07/08 09:33:01;;;;;;;3.35;1.10;;;;;;;;;;5034047;28;20037;-77
2022/07/08 09:35:31;;;;;;;2.35;0.90;;;;;;;;;;5017126;28;20045;-79
2022/07/08 09:38:00;;;;;;;1.92;0.90;;;;;;;;;;5034047;28;20076;-78
2022/07/08 09:40:27;;;;;;;2.95;0.82;;;;;;;;;;5011932;28;20037;-79
2022/07/08 09:42:53;;;;;;;2.50;1.00;;;;;;;;;;5008146;28;20130;-79
2022/07/08 09:45:19;;;;;;;2.03;1.10;;;;;;;;;;5027084;28;20073;-78
2022/07/08 09:47:46;;;;;;;3.70;1.00;;;;;;;;;;5037944;28;20127;-80
2022/07/08 09:50:15;;;;;;;3.30;1.08;;;;;;;;;;5015283;28;20168;-79
2022/07/08 09:52:41;;;;;;;2.83;0.90;;;;;;;;;;5013125;28;20419;-81
2022/07/08 09:55:08;;;;;;;3.15;0.82;;;;;;;;;;5010841;28;20030;-81
2022/07/08 09:57:34;;;;;;;1.65;0.80;;;;;;;;;;5013868;28;20057;-81
2022/07/08 10:00:00;;;;;;;1.40;0.80;;;;;;;;;;5011211;28;20053;-83
2022/07/08 10:02:29;;;;;;;3.42;0.80;;;;;;;;;;5014482;28;20095;-84
2022/07/08 10:04:55;;;;;;;1.30;0.90;;;;;;;;;;5013199;28;20057;-82
2022/07/08 10:07:21;;;;;;;2.20;1.00;;;;;;;;;;5020438;28;20523;-82
2022/07/08 10:09:49;;;;;;;2.42;0.85;;;;;;;;;;5033654;28;20045;-82
2022/07/08 10:12:17;;;;;;;1.75;0.93;;;;;;;;;;5016371;28;20083;-82
2022/07/08 10:14:45;;;;;;;2.88;0.80;;;;;;;;;;4992039;28;20073;-81
2022/07/08 10:17:14;;;;;;;0.95;0.90;;;;;;;;;;5020756;28;20121;-81
2022/07/08 10:19:41;;;;;;;3.00;1.25;;;;;;;;;;5033322;28;20124;-81
2022/07/08 10:22:08;;;;;;;5.35;1.08;;;;;;;;;;5028378;28;20044;-79
2022/07/08 10:24:37;;;;;;;1.73;0.88;;;;;;;;;;5027452;28;20051;-79
2022/07/08 10:27:04;;;;;;;3.90;0.90;;;;;;;;;;5049065;28;20111;-79
2022/07/08 10:29:33;;;;;;;1.55;1.00;;;;;;;;;;5017357;28;20045;-77
2022/07/08 10:31:59;;;;;;;3.05;1.00;;;;;;;;;;5016204;28;20037;-78
2022/07/08 10:34:36;;;;;;;3.25;0.82;;;;;;;;;;5007751;28;20408;-80
2022/07/08 10:37:03;;;;;;;2.95;1.10;;;;;;;;;;4996052;28;20033;-80
2022/07/08 10:39:30;;;;;;;5.60;1.38;;;;;;;;;;4996345;28;20515;-78
2022/07/08 10:41:57;;;;;;;0.98;0.60;;;;;;;;;;4995827;28;20041;-79
2022/07/08 10:44:42;;;;;;;3.08;0.90;;;;;;;;;;5030240;28;20048;-79
2022/07/08 10:47:15;;;;;;;2.80;0.95;;;;;;;;;;5032441;28;20132;-78
2022/07/08 10:49:42;;;;;;;2.47;0.90;;;;;;;;;;5033600;28;20041;-77
2022/07/08 10:52:08;;;;;;;2.13;1.00;;;;;;;;;;5031111;28;20038;-78
2022/07/08 10:54:37;;;;;;;2.05;0.75;;;;;;;;;;5005437;28;20034;-77
2022/07/08 10:57:09;;;;;;;3.75;0.98;;;;;;;;;;5017305;28;20139;-78
2022/07/08 10:59:36;;;;;;;6.32;1.20;;;;;;;;;;5018212;28;20073;-81
2022/07/08 11:02:06;;;;;;;1.63;1.05;;;;;;;;;;4999180;28;20037;-76
2022/07/08 11:04:36;;;;;;;2.25;1.00;;;;;;;;;;5024045;28;20057;-80
2022/07/08 11:09:49;;;;;;;1.95;1.00;;;;;;;;;;5017928;28;20034;-80
2022/07/08 11:12:16;;;;;;;1.98;0.90;;;;;;;;;;4998544;28;20061;-80
2022/07/08 11:14:45;;;;;;;4.13;0.98;;;;;;;;;;5022741;28;20037;-80
2022/07/08 11:17:18;;;;;;;1.05;0.80;;;;;;;;;;5020152;28;20033;-79
2022/07/08 11:19:45;;;;;;;1.20;0.73;;;;;;;;;;5019931;28;20045;-80
2022/07/08 11:22:11;;;;;;;0.90;0.80;;;;;;;;;;5038355;28;20482;-80
2022/07/08 11:24:38;;;;;;;3.58;1.17;;;;;;;;;;5018189;28;20060;-80
2022/07/08 11:27:05;;;;;;;1.35;0.80;;;;;;;;;;5037383;28;20488;-79
2022/07/08 11:29:31;;;;;;;1.60;0.88;;;;;;;;;;5037079;28;20507;-80
2022/07/08 11:31:58;;;;;;;5.03;1.00;;;;;;;;;;5035055;28;20041;-80
2022/07/08 11:34:26;;;;;;;2.72;0.80;;;;;;;;;;5033933;28;20076;-79
2022/07/08 11:36:54;;;;;;;1.48;0.75;;;;;;;;;;5018283;28;20448;-80
2022/07/08 11:39:20;;;;;;;1.90;1.00;;;;;;;;;;5000051;28;20538;-76
2022/07/08 11:41:46;;;;;;;6.85;1.00;;;;;;;;;;5023550;28;20066;-79
2022/07/08 11:44:12;;;;;;;4.80;0.93;;;;;;;;;;5023053;28;20049;-82
2022/07/08 11:46:45;;;;;;;4.15;0.80;;;;;;;;;;5028841;28;20169;-83
2022/07/08 11:49:12;;;;;;;1.80;1.00;;;;;;;;;;4998983;28;20460;-82
2022/07/08 11:51:38;;;;;;;1.05;0.80;;;;;;;;;;5016894;28;20104;-81
2022/07/08 11:54:04;;;;;;;4.95;1.00;;;;;;;;;;4999412;28;20072;-80
2022/07/08 11:56:33;;;;;;;3.10;0.93;;;;;;;;;;5021543;28;20546;-84
2022/07/08 11:58:59;;;;;;;2.13;0.82;;;;;;;;;;5004865;28;20139;-80
2022/07/08 12:01:26;;;;;;;3.45;0.90;;;;;;;;;;5017043;28;20045;-80
2022/07/08 12:03:52;;;;;;;5.00;0.90;;;;;;;;;;5015567;28;20045;-79
2022/07/08 12:06:25;;;;;;;1.52;0.77;;;;;;;;;;5026439;28;20049;-80
2022/07/08 12:08:51;;;;;;;5.80;1.50;;;;;;;;;;5021049;28;20070;-82
2022/07/08 12:11:20;;;;;;;2.38;1.00;;;;;;;;;;5016340;28;20052;-83
2022/07/08 12:13:48;;;;;;;2.20;0.82;;;;;;;;;;5015548;28;20476;-82
2022/07/08 12:16:28;;;;;;;2.80;0.90;;;;;;;;;;5016325;28;20064;-77
2022/07/08 12:18:54;;;;;;;7.03;1.15;;;;;;;;;;5001750;28;20046;-89
2022/07/08 12:21:20;;;;;;;2.35;1.10;;;;;;;;;;4996449;28;20034;-88
2022/07/08 12:23:56;;;;;;;2.97;0.90;;;;;;;;;;4996048;28;20501;-83
2022/07/08 12:26:23;;;;;;;2.95;0.90;;;;;;;;;;4995435;28;20046;-87
2022/07/08 12:28:49;;;;;;;2.17;0.90;;;;;;;;;;4995066;28;20523;-80
2022/07/08 12:31:33;;;;;;;3.45;0.90;;;;;;;;;;4995751;28;20034;-81
2022/07/08 12:34:01;;;;;;;4.38;0.85;;;;;;;;;;5011600;28;20092;-83
2022/07/08 12:36:27;;;;;;;3.55;0.90;;;;;;;;;;4999332;28;20121;-83
2022/07/08 12:38:54;;;;;;;2.65;0.80;;;;;;;;;;5017518;28;20041;-81
2022/07/08 12:41:20;;;;;;;4.85;1.00;;;;;;;;;;5015132;28;20575;-82
2022/07/08 12:43:47;;;;;;;2.20;0.90;;;;;;;;;;5002552;28;20037;-81
2022/07/08 12:46:13;;;;;;;2.58;0.90;;;;;;;;;;5006142;28;20042;-81
2022/07/08 12:48:39;;;;;;;1.83;1.08;;;;;;;;;;5014446;28;20038;-80
2022/07/08 12:51:07;;;;;;;5.10;1.00;;;;;;;;;;5014719;28;20038;-81
2022/07/08 12:53:33;;;;;;;1.35;1.00;;;;;;;;;;5015933;28;20045;-83
2022/07/08 12:56:00;;;;;;;5.03;2.50;;;;;;;;;;5004013;28;20039;-82
2022/07/08 12:58:26;;;;;;;3.05;0.75;;;;;;;;;;5007744;28;20050;-83
2022/07/08 13:00:56;;;;;;;5.25;1.10;;;;;;;;;;5014783;28;20084;-81
2022/07/08 13:03:22;;;;;;;1.77;0.80;;;;;;;;;;5020700;28;20088;-82
2022/07/08 13:05:48;;;;;;;3.78;0.93;;;;;;;;;;5034501;28;20049;-81
2022/07/08 13:08:14;;;;;;;5.97;1.23;;;;;;;;;;5022929;28;20041;-82
2022/07/08 13:10:40;;;;;;;1.80;0.73;;;;;;;;;;4999939;28;20061;-80
2022/07/08 13:13:07;;;;;;;2.05;0.90;;;;;;;;;;4994895;28;20085;-79
2022/07/08 13:15:37;;;;;;;2.03;0.90;;;;;;;;;;5005996;28;20132;-79
2022/07/08 13:18:03;;;;;;;1.90;1.23;;;;;;;;;;5014164;28;20480;-81
2022/07/08 13:20:29;;;;;;;2.05;0.98;;;;;;;;;;5014537;28;20499;-80
2022/07/08 13:22:55;;;;;;;1.00;0.85;;;;;;;;;;5014322;28;20029;-81
2022/07/08 13:25:22;;;;;;;2.25;0.57;;;;;;;;;;5014755;28;20089;-81
2022/07/08 13:27:48;;;;;;;1.13;0.90;;;;;;;;;;5015852;28;20041;-79
2022/07/08 13:30:14;;;;;;;1.27;0.63;;;;;;;;;;5015608;28;20034;-80
2022/07/08 13:32:40;;;;;;;4.07;0.98;;;;;;;;;;5006217;28;20042;-78
2022/07/08 13:35:06;;;;;;;2.05;0.70;;;;;;;;;;4993811;28;20393;-81
2022/07/08 13:37:33;;;;;;;0.90;0.80;;;;;;;;;;4994448;28;20038;-80
2022/07/08 13:39:59;;;;;;;2.35;0.80;;;;;;;;;;4995716;28;20500;-80
2022/07/08 13:42:26;;;;;;;2.20;0.98;;;;;;;;;;4995552;28;20049;-80
2022/07/08 13:44:52;;;;;;;1.88;0.95;;;;;;;;;;4993520;28;20046;-80
2022/07/08 13:47:18;;;;;;;3.13;0.80;;;;;;;;;;4994168;28;20046;-83
2022/07/08 13:49:44;;;;;;;3.28;1.33;;;;;;;;;;5003723;28;20092;-77
2022/07/08 13:52:10;;;;;;;2.05;0.90;;;;;;;;;;5002771;28;20041;-82
2022/07/08 13:54:36;;;;;;;1.05;0.70;;;;;;;;;;5017787;28;20369;-78
2022/07/08 13:57:03;;;;;;;5.05;0.90;;;;;;;;;;5017011;28;20037;-80
2022/07/08 13:59:29;;;;;;;2.10;0.80;;;;;;;;;;5012231;28;20409;-79
2022/07/08 14:01:55;;;;;;;2.45;0.70;;;;;;;;;;5029234;28;20064;-78
2022/07/08 14:04:21;;;;;;;3.50;0.90;;;;;;;;;;5027343;28;20044;-77
2022/07/08 14:06:47;;;;;;;0.98;0.68;;;;;;;;;;5026263;28;20519;-78
2022/07/08 14:09:13;;;;;;;0.75;0.75;;;;;;;;;;5034851;28;20052;-78
2022/07/08 14:11:39;;;;;;;0.82;0.63;;;;;;;;;;5019979;28;20034;-78
2022/07/08 14:14:06;;;;;;;1.45;0.60;;;;;;;;;;5014205;28;20056;-78
2022/07/08 14:16:32;;;;;;;2.45;0.80;;;;;;;;;;5007463;28;20062;-77
2022/07/08 14:18:58;;;;;;;6.85;1.00;;;;;;;;;;4994615;28;20046;-77
2022/07/08 14:21:24;;;;;;;6.13;0.80;;;;;;;;;;4996475;28;20033;-78
2022/07/08 14:23:51;;;;;;;3.17;0.90;;;;;;;;;;5033633;28;20053;-79
2022/07/08 14:26:17;;;;;;;3.60;0.95;;;;;;;;;;5032334;28;20041;-80
2022/07/08 14:28:43;;;;;;;2.45;0.90;;;;;;;;;;5030061;28;20085;-77
2022/07/08 14:31:09;;;;;;;5.65;1.20;;;;;;;;;;5013273;28;20034;-78
2022/07/08 14:33:35;;;;;;;2.00;0.88;;;;;;;;;;5012605;28;20049;-79
2022/07/08 14:36:02;;;;;;;2.30;0.75;;;;;;;;;;4999778;28;20030;-78
2022/07/08 14:38:29;;;;;;;2.45;0.70;;;;;;;;;;5006581;28;20057;-79
2022/07/08 14:40:55;;;;;;;4.97;1.10;;;;;;;;;;5011245;28;20034;-78
2022/07/08 14:43:21;;;;;;;4.82;1.10;;;;;;;;;;5010150;28;20042;-78
2022/07/08 14:45:49;;;;;;;2.72;0.88;;;;;;;;;;5013335;28;20045;-76
2022/07/08 14:48:15;;;;;;;0.80;0.65;;;;;;;;;;5000679;28;20147;-78
2022/07/08 14:50:41;;;;;;;1.38;0.90;;;;;;;;;;4993635;28;20096;-78